Middleton, WI (53562)

9:06 PM CDT on July 29, 2016 (GMT -0500)
Middleton | | Change Station

Elev 928 ft 43.12 °N, 89.53 °W | Updated 11 minutes ago

Overcast
Overcast
70 °F
Feels Like 70 °F
N
4
Wind Variable Wind from ENE

Today
High -- | Low -- °F
--% Chance of Precip.
Yesterday
High -- | Low -- °F
Precip. -- in
Pressure 30.01 in
Visibility 10.0 miles
Clouds Overcast 6500 ft
Dew Point 64 °F
Humidity 83%
Rainfall 0.08 in
Snow Depth Not available.
5:46 AM 8:22 PM
Waning Crescent, 17% visible
METAR KC29 300155Z AUTO 06003KT 10SM OVC065 21/18 A3001 RMK AO1 T02100180
Pressure 30.01 in
Visibility 10.0 miles
Clouds Overcast 6500 ft
Dew Point 64 °F
Humidity 83%
Rainfall 0.08 in
Snow Depth Not available.
5:46 AM 8:22 PM
Waning Crescent, 17% visible
METAR KC29 300155Z AUTO 06003KT 10SM OVC065 21/18 A3001 RMK AO1 T02100180

10-Day Weather Forecast

Almanac

Astronomy

Jul. 29, 2016 Rise Set
Actual Time
Civil Twilight
Nautical Twilight
Astronomical Twilight
Moon
Length of Visible Light
Length of Day
Tomorrow will be .
, % of the Moon is Illuminated

Today's Extremes

State Highs State Lows

Community

WunderPhotos

Upload Photos

1,928,481 photos uploaded!

WunderBlog® & News

Nearby

Air Quality

  Air Quality AQ Index Pollutant
Not available.

Snow Depth

Station Depth Elevation

Earthquake Activity

City Distance Mag. Time & Date
Minimum magnitude displayed is 2.5.

Coastal Water Temperatures

Place Temperature

Stations

Nearby Weather Stations

Station Location Temp. Windchill Dew Point Humidity Wind Precip. Elev Updated Type
                   

Watches & Warnings

There are currently no watches in effect.